イカルイト の空港の天気 - METARとTAF

イカルイト空港 ( CYFB / YFB ) - カナダ ヌナブト準州イカルイト
飛行場実況気象(Metar)
観測時間02/17 09:33 EST (02/17 14:33 UTC)
風向・風速北 3m/s
視程10km以上
天気現象弱い雪
全天の8割程度の雲 雲底高度 270m
全天の8割程度の雲 雲底高度 460m
気温-24℃
湿度76%
気圧1012hPa
METARCYFB 171433Z 35005KT 8SM -SN BKN009 BKN015 M24/M27 A2986 RMK SC5SC2 VIS N LWR SLP120
過去の天気等 Google飛行場航空写真 Wunderground天気予報

過去48時間のMETAR

飛行場予報(TAF)
発表時間: 2/17 06:38 EST (2/17 11:38 UTC)
予報対象時間: 17日7時 EST ~ 18日7時 EST
風向・風速北西 3m/s
視程10km以上
天気現象弱い雪
全天を覆う雲 雲底高度 270m
17日7時 EST ~ 17日13時 EST に一時的に
視程10km以上
天気現象運行に影響にある天気現象が終了
全天を覆う雲 雲底高度 370m
17日13時 EST から
風向・風速北北西 5m/s
視程10km以上
全天の4割程度の雲 雲底高度 270m
17日13時 EST ~ 17日17時 EST に一時的に
視程10km以上
天気現象弱い雪
全天の8割程度の雲 雲底高度 270m
17日17時 EST から
風向・風速北北西 6m/s
視程10km以上
少しの雲 雲底高度 370m
18日1時 EST ~ 18日3時 EST に徐々に
風向・風速北西 9m/s
18日3時 EST から
風向・風速北西 9m/s
視程6440m
天気現象細氷 高い地吹雪
なし
TAF CYFB 171138Z 1712/1812 31005KT 6SM -SN OVC009
TEMPO 1712/1718 P6SM NSW OVC012
FM171800 33010KT P6SM SCT009
TEMPO 1718/1722 P6SM -SN BKN009
FM172200 33012KT P6SM FEW012
BECMG 1806/1808 32018KT
FM180800 32018KT 4SM IC BLSN SKC RMK NXT FCST BY 171800Z